Hlavní strana
METAR-TAF:

METAR-TAF

Letiště :

Groznyj, Rusko

zeměpisná šířka: 43-23-18N, zeměpisná délka: 045-41-59E, výška: 167 m

Aktuální stav počasí

Zpráva byla vytvořena před 43 minutami, v 15:30 UTC
Severozápadní vítr 10 kt
Teplota -1°C
Vlhkost vzduchu 80%
Tlak 1013 hPa
Viditelnost 10 km a více
Zataženo ve výšce 4000 ft

METAR: URMG 181530Z 31005MPS 9999 OVC040 M01/M04 Q1013 R26/120060 NOSIG RMK QFE745/0994

Čas: 19:13 (16:13 UTC)

Předpověď počasí

Zpráva byla vytvořena před 2 hodinami a 13 minutami, v 14:00 UTC
Předpověď platná od 18 v 15 UTC do 18 v 24 UTC
Západoseverozápadní vítr 6 kt s nárazy do 16 kt
Viditelnost 10 km a více
Oblačno až skoro zataženo ve výšce 1600 ft
Dočasný
od 18 v 15 UTC do 18 v 24 UTC
Severozápadní vítr 12 kt s nárazy do 27 kt
Viditelnost: 6000 m
Oblačno až skoro zataženo ve výšce 700 ft
Oblačno až skoro zataženo ve výšce 1600 ft, Cumulonimbus.
slabé sněhové přeháňky

TAF: URMG 181400Z 1815/1824 30003G08MPS 9999 BKN016 TEMPO 1815/1824 31006G14MPS 6000 -SHSN BKN007 BKN016CB

Stav a předpovědi počasí z více než 4 000 letišť (zprávy METAR a TAF).

Červené a žluté tečky na mapě představují dostupné meteorologické stanice.

Když kurzor umístíte na tečku, zobrazí se název stanice.

Pak kliknutím zobrazíte stav a předpověď počasí.

Chcete-li změnit mapu, kliknutím na zelené tlačítko se znaménkem +mapu přiblížíte, kliknutím na zelené tlačítko se znaménkem – mapu oddálíte a kliknutím na zelené šipky přejdete na sousední mapy.


METAR-TAF: